Terminal Aerodrome Forecast
Issued by NWS

Home | Current Version | Previous Version | Text Only | Print | Product List | Glossary On
Versions: 1 2 3 4 5 6 7 8 9 10 11 12 13 14 15 16 17 18 19 20 21 22 23 24 25 26 27 28 29 30 31 32 33 34 35 36 37 38 39 40 41 42
000
FTUS44 KHGX 211132
TAFLBX
TAF
KLBX 211132Z 2112/2212 02005KT P6SM OVC010
     FM211500 09005KT P6SM SCT015 BKN025
     FM212000 12005KT P6SM FEW040 BKN050
     FM220300 14005KT P6SM SCT015 OVC025
     FM220900 VRB03KT 6SM BR OVC015=

USA.gov is the U.S. government's official web portal to all federal, state and local government web resources and services.